Time;durP1;ratioP1;P1;durP2;ratioP2;P2;SDS_P1;SDS_P2;PMS_P1;PMS_P2;Temp;Humidity;BMP_temperature;BMP_pressure;BME280_temperature;BME280_humidity;BME280_pressure;Samples;Min_cycle;Max_cycle;Signal;HPM_P1;HPM_P2
2023/08/31 00:00:45;;;;;;;3.40;1.70;;;14.90;99.90;;;;;;4999246;28;20214;-33
2023/08/31 00:03:13;;;;;;;2.63;1.50;;;14.90;99.90;;;;;;4999038;28;20233;-32
2023/08/31 00:05:41;;;;;;;1.73;1.40;;;14.90;99.90;;;;;;4999569;28;20186;-32
2023/08/31 00:08:07;;;;;;;1.60;1.40;;;14.90;99.90;;;;;;4998978;28;20174;-34
2023/08/31 00:10:34;;;;;;;2.83;1.80;;;14.80;99.90;;;;;;4999156;28;20226;-34
2023/08/31 00:13:06;;;;;;;5.27;2.20;;;14.80;99.90;;;;;;5015490;28;20229;-32
2023/08/31 00:15:35;;;;;;;4.93;2.10;;;14.80;99.90;;;;;;5015617;28;20205;-34
2023/08/31 00:18:03;;;;;;;2.37;2.00;;;14.80;99.90;;;;;;5015345;28;20186;-35
2023/08/31 00:20:30;;;;;;;2.30;2.10;;;14.70;99.90;;;;;;4998828;28;20206;-32
2023/08/31 00:22:56;;;;;;;2.90;2.07;;;14.80;99.90;;;;;;4998864;28;20210;-34
2023/08/31 00:25:22;;;;;;;2.80;2.50;;;14.80;99.90;;;;;;4998586;28;20240;-32
2023/08/31 00:27:48;;;;;;;3.80;2.30;;;14.80;99.90;;;;;;4999276;28;20201;-32
2023/08/31 00:30:14;;;;;;;3.23;2.10;;;14.80;99.90;;;;;;4999179;28;20205;-32
2023/08/31 00:32:42;;;;;;;3.60;2.23;;;14.70;99.90;;;;;;4998782;28;20206;-33
2023/08/31 00:35:11;;;;;;;3.73;2.23;;;14.70;99.90;;;;;;5014827;28;20210;-33
2023/08/31 00:37:38;;;;;;;2.67;2.30;;;14.70;99.90;;;;;;5015055;28;20187;-35
2023/08/31 00:40:04;;;;;;;4.03;2.10;;;14.60;99.90;;;;;;4998670;28;20210;-33
2023/08/31 00:42:31;;;;;;;2.83;2.20;;;14.60;99.90;;;;;;4998402;28;20217;-32
2023/08/31 00:44:57;;;;;;;2.20;2.00;;;14.60;99.90;;;;;;4998710;28;20181;-32
2023/08/31 00:47:23;;;;;;;3.57;2.33;;;14.60;99.90;;;;;;5014988;28;20175;-32
2023/08/31 00:49:49;;;;;;;3.57;2.17;;;14.60;99.90;;;;;;4997825;28;20174;-32
2023/08/31 00:52:17;;;;;;;2.33;2.07;;;14.60;99.90;;;;;;4998552;28;20190;-34
2023/08/31 00:54:43;;;;;;;2.33;2.10;;;14.60;99.90;;;;;;4998502;28;20175;-33
2023/08/31 00:57:09;;;;;;;2.93;2.30;;;14.60;99.90;;;;;;4998577;28;20189;-33
2023/08/31 00:59:36;;;;;;;3.47;2.00;;;14.60;99.90;;;;;;5015091;28;20218;-34
2023/08/31 01:02:16;;;;;;;4.20;2.10;;;14.60;99.90;;;;;;4998631;28;20194;-33
2023/08/31 01:04:48;;;;;;;3.77;2.20;;;14.60;99.90;;;;;;4998050;28;20240;-33
2023/08/31 01:07:34;;;;;;;9.37;2.47;;;14.60;99.90;;;;;;4997913;28;20174;-33
2023/08/31 01:10:42;;;;;;;2.67;2.03;;;14.60;99.90;;;;;;4998530;28;20186;-34
2023/08/31 01:13:13;;;;;;;2.00;1.80;;;14.50;99.90;;;;;;4998121;28;20241;-32
2023/08/31 01:15:46;;;;;;;2.93;2.17;;;14.50;99.90;;;;;;4998391;28;20265;-33
2023/08/31 01:18:17;;;;;;;2.77;1.80;;;14.50;99.90;;;;;;5014281;28;20209;-34
2023/08/31 01:20:47;;;;;;;2.87;2.20;;;14.40;99.90;;;;;;4997707;28;20293;-34
2023/08/31 01:23:19;;;;;;;2.63;2.00;;;14.40;99.90;;;;;;4997608;28;20210;-32
2023/08/31 01:25:48;;;;;;;2.83;1.73;;;14.40;99.90;;;;;;4997083;28;20266;-32
2023/08/31 01:28:14;;;;;;;2.37;1.77;;;14.30;99.90;;;;;;4997837;28;20186;-33
2023/08/31 01:30:40;;;;;;;3.40;1.80;;;14.30;99.90;;;;;;5012932;28;20186;-35
2023/08/31 01:33:06;;;;;;;3.47;1.70;;;14.30;99.90;;;;;;4997937;28;20217;-32
2023/08/31 01:35:43;;;;;;;3.60;1.80;;;14.30;99.90;;;;;;4997774;28;20186;-33
2023/08/31 01:38:10;;;;;;;1.90;1.70;;;14.30;99.90;;;;;;4997356;28;20197;-34
2023/08/31 01:40:43;;;;;;;4.80;1.93;;;14.20;99.90;;;;;;4997521;28;20217;-33
2023/08/31 01:43:11;;;;;;;3.87;1.90;;;14.20;99.90;;;;;;4997836;28;20202;-33
2023/08/31 01:45:37;;;;;;;2.37;1.60;;;14.20;99.90;;;;;;4997523;28;20186;-33
2023/08/31 01:48:04;;;;;;;3.93;1.70;;;14.20;99.90;;;;;;4996717;28;20198;-34
2023/08/31 01:50:30;;;;;;;2.90;2.10;;;14.20;99.90;;;;;;4997247;28;20182;-35
2023/08/31 01:52:56;;;;;;;3.27;1.80;;;14.20;99.90;;;;;;4997027;28;20207;-32
2023/08/31 01:55:23;;;;;;;2.90;1.70;;;14.10;99.90;;;;;;4996720;28;20210;-34
2023/08/31 01:57:49;;;;;;;2.03;1.77;;;14.10;99.90;;;;;;4997062;28;20237;-33
2023/08/31 02:00:20;;;;;;;1.80;1.50;;;14.10;99.90;;;;;;4993109;28;20238;-32
2023/08/31 02:02:47;;;;;;;2.17;1.60;;;14.10;99.90;;;;;;4997438;28;20206;-35
2023/08/31 02:05:13;;;;;;;2.00;1.63;;;14.10;99.90;;;;;;4981258;28;20183;-33
2023/08/31 02:07:40;;;;;;;2.33;1.97;;;14.00;99.90;;;;;;5004946;28;20178;-33
2023/08/31 02:10:06;;;;;;;3.50;1.80;;;14.00;99.90;;;;;;4980965;28;20187;-33
2023/08/31 02:12:32;;;;;;;1.60;1.50;;;14.00;99.90;;;;;;4989196;28;20217;-33
2023/08/31 02:14:59;;;;;;;2.20;1.80;;;13.90;99.90;;;;;;4989586;28;20241;-32
2023/08/31 02:17:25;;;;;;;2.53;1.83;;;13.90;99.90;;;;;;4986010;28;20218;-32
2023/08/31 02:19:51;;;;;;;2.83;1.80;;;13.90;99.90;;;;;;4985059;28;20202;-33
2023/08/31 02:22:17;;;;;;;2.23;1.63;;;13.80;99.90;;;;;;4986714;28;20214;-32
2023/08/31 02:24:44;;;;;;;2.27;1.80;;;13.80;99.90;;;;;;5005616;28;20198;-32
2023/08/31 02:27:10;;;;;;;2.30;1.77;;;13.70;99.90;;;;;;4996660;28;20187;-33
2023/08/31 02:29:36;;;;;;;2.67;1.90;;;13.70;99.90;;;;;;5005297;28;20205;-32
2023/08/31 02:32:05;;;;;;;3.00;1.93;;;13.80;99.90;;;;;;5012934;28;20198;-33
2023/08/31 02:34:33;;;;;;;2.30;2.10;;;13.80;99.90;;;;;;4985565;28;20198;-34
2023/08/31 02:36:59;;;;;;;2.20;2.00;;;13.80;99.90;;;;;;4992717;28;20193;-32
2023/08/31 02:39:27;;;;;;;3.47;1.77;;;13.70;99.90;;;;;;4988754;28;20182;-33
2023/08/31 02:41:53;;;;;;;2.20;2.00;;;13.70;99.90;;;;;;4998048;28;20211;-32
2023/08/31 02:44:19;;;;;;;2.20;1.80;;;13.70;99.90;;;;;;4984946;28;20186;-33
2023/08/31 02:46:46;;;;;;;3.70;2.17;;;13.70;99.90;;;;;;4985955;28;20267;-32
2023/08/31 02:49:12;;;;;;;2.57;2.00;;;13.70;99.90;;;;;;4986919;28;20309;-32
2023/08/31 02:51:37;;;;;;;3.63;2.17;;;13.60;99.90;;;;;;5004789;28;20203;-34
2023/08/31 02:54:03;;;;;;;4.20;2.10;;;13.60;99.90;;;;;;4996844;28;20201;-34
2023/08/31 02:56:29;;;;;;;3.57;1.90;;;13.60;99.90;;;;;;4988539;28;20174;-32
2023/08/31 02:58:55;;;;;;;4.33;2.20;;;13.50;99.90;;;;;;4997367;28;20183;-33
2023/08/31 03:01:24;;;;;;;2.57;1.90;;;13.50;99.90;;;;;;5013126;28;20214;-32
2023/08/31 03:03:50;;;;;;;3.73;2.13;;;13.40;99.90;;;;;;4997172;28;20218;-32
2023/08/31 03:06:17;;;;;;;5.17;2.30;;;13.40;99.90;;;;;;4978391;28;20247;-33
2023/08/31 03:08:43;;;;;;;3.00;2.40;;;13.40;99.90;;;;;;4985298;28;20245;-32
2023/08/31 03:11:09;;;;;;;2.90;2.47;;;13.40;99.90;;;;;;4985393;28;20648;-33
2023/08/31 03:13:35;;;;;;;3.20;2.53;;;13.40;99.90;;;;;;4988846;28;20213;-34
2023/08/31 03:16:02;;;;;;;3.10;2.47;;;13.40;99.90;;;;;;4990129;28;20270;-34
2023/08/31 03:18:29;;;;;;;6.60;2.43;;;13.40;99.90;;;;;;4996519;28;20183;-32
2023/08/31 03:20:55;;;;;;;3.53;2.37;;;13.40;99.90;;;;;;5012164;28;20207;-33
2023/08/31 03:23:24;;;;;;;3.57;2.10;;;13.40;99.90;;;;;;4999804;28;20211;-32
2023/08/31 03:25:50;;;;;;;3.50;2.40;;;13.40;99.90;;;;;;4986666;28;20191;-35
2023/08/31 03:28:16;;;;;;;4.03;2.40;;;13.50;99.90;;;;;;4995068;28;20183;-34
2023/08/31 03:30:44;;;;;;;2.57;2.30;;;13.50;99.90;;;;;;4986392;28;20179;-34
2023/08/31 03:33:12;;;;;;;3.00;2.30;;;13.40;99.90;;;;;;4990882;28;20195;-33
2023/08/31 03:35:38;;;;;;;2.77;2.13;;;13.40;99.90;;;;;;4993060;28;20178;-35
2023/08/31 03:38:04;;;;;;;3.30;2.60;;;13.40;99.90;;;;;;5002610;28;20206;-34
2023/08/31 03:40:31;;;;;;;4.23;2.30;;;13.40;99.90;;;;;;4984461;28;20198;-32
2023/08/31 03:42:57;;;;;;;3.00;2.00;;;13.40;99.90;;;;;;5000978;28;20669;-33
2023/08/31 03:45:22;;;;;;;3.33;2.30;;;13.40;99.90;;;;;;4988333;28;20175;-34
2023/08/31 03:47:49;;;;;;;3.37;2.17;;;13.30;99.90;;;;;;4989227;28;20199;-32
2023/08/31 03:50:15;;;;;;;2.87;2.20;;;13.30;99.90;;;;;;4988092;28;20257;-32
2023/08/31 03:52:41;;;;;;;2.60;1.93;;;13.40;99.90;;;;;;4988208;28;20203;-34
2023/08/31 03:55:09;;;;;;;2.47;2.07;;;13.30;99.90;;;;;;4980249;28;20242;-33
2023/08/31 03:57:35;;;;;;;3.87;2.20;;;13.30;99.90;;;;;;4989052;28;20206;-33
2023/08/31 04:00:12;;;;;;;4.97;2.60;;;13.30;99.90;;;;;;5012899;28;20206;-35
2023/08/31 04:02:44;;;;;;;4.00;2.30;;;13.30;99.90;;;;;;5009773;28;20215;-32
2023/08/31 04:05:14;;;;;;;2.87;1.93;;;13.20;99.90;;;;;;4983855;28;20183;-32
2023/08/31 04:07:43;;;;;;;3.17;2.60;;;13.20;99.90;;;;;;4987270;28;20184;-34
2023/08/31 04:10:09;;;;;;;3.43;2.17;;;13.30;99.90;;;;;;4996379;28;20182;-34
2023/08/31 04:12:34;;;;;;;5.00;2.30;;;13.30;99.90;;;;;;4988540;28;20280;-35
2023/08/31 04:15:00;;;;;;;3.33;2.33;;;13.40;99.90;;;;;;4983746;28;20221;-32
2023/08/31 04:17:26;;;;;;;4.73;2.20;;;13.30;99.90;;;;;;5014508;28;20195;-32
2023/08/31 04:19:52;;;;;;;3.40;2.50;;;13.30;99.90;;;;;;4993196;28;20183;-34
2023/08/31 04:22:18;;;;;;;2.57;2.37;;;13.30;99.90;;;;;;5011161;28;20214;-32
2023/08/31 04:24:44;;;;;;;3.77;2.60;;;13.40;99.90;;;;;;4989494;28;20266;-33
2023/08/31 04:27:09;;;;;;;3.37;2.43;;;13.40;99.90;;;;;;4987841;28;20179;-32
2023/08/31 04:29:35;;;;;;;2.90;2.40;;;13.50;99.90;;;;;;4987908;28;20187;-32
2023/08/31 04:32:01;;;;;;;2.83;2.53;;;13.50;99.90;;;;;;4999033;28;20198;-34
2023/08/31 04:34:27;;;;;;;3.57;2.37;;;13.50;99.90;;;;;;5005774;28;20191;-33
2023/08/31 04:36:53;;;;;;;2.40;2.20;;;13.40;99.90;;;;;;4986327;28;20195;-33
2023/08/31 04:39:19;;;;;;;3.60;2.47;;;13.40;99.90;;;;;;4988788;28;20183;-34
2023/08/31 04:41:44;;;;;;;3.80;2.40;;;13.40;99.90;;;;;;5006599;28;20207;-33
2023/08/31 04:44:10;;;;;;;3.60;2.20;;;13.40;99.90;;;;;;5008636;28;20266;-33
2023/08/31 04:46:37;;;;;;;3.33;2.70;;;13.40;99.90;;;;;;5011368;28;20191;-34
2023/08/31 04:49:04;;;;;;;3.60;2.53;;;13.40;99.90;;;;;;4987559;28;20171;-34
2023/08/31 04:51:34;;;;;;;3.57;2.50;;;13.40;99.90;;;;;;4994981;28;20179;-32
2023/08/31 04:54:00;;;;;;;3.50;2.53;;;13.40;99.90;;;;;;4986403;28;20278;-32
2023/08/31 04:56:34;;;;;;;4.10;2.60;;;13.40;99.90;;;;;;4986861;28;20358;-32
2023/08/31 04:59:02;;;;;;;3.07;2.67;;;13.40;99.90;;;;;;5002862;28;20190;-32
2023/08/31 05:01:28;;;;;;;2.43;2.23;;;13.40;99.90;;;;;;5002991;28;20277;-32
2023/08/31 05:03:54;;;;;;;5.03;2.20;;;13.40;99.90;;;;;;4986757;28;20210;-32
2023/08/31 05:06:20;;;;;;;2.77;2.30;;;13.30;99.90;;;;;;4986717;28;20170;-32
2023/08/31 05:08:48;;;;;;;3.50;2.37;;;13.20;99.90;;;;;;4986885;28;20572;-32
2023/08/31 05:11:14;;;;;;;2.63;2.40;;;13.20;99.90;;;;;;4983933;28;20179;-33
2023/08/31 05:13:42;;;;;;;2.50;2.20;;;13.10;99.90;;;;;;4990224;28;20644;-32
2023/08/31 05:16:11;;;;;;;5.07;2.97;;;13.10;99.90;;;;;;4989575;28;20205;-32
2023/08/31 05:18:38;;;;;;;7.07;2.80;;;13.10;99.90;;;;;;4998341;28;20183;-33
2023/08/31 05:21:04;;;;;;;4.07;2.67;;;13.10;99.90;;;;;;4994661;28;20207;-32
2023/08/31 05:23:30;;;;;;;4.20;2.67;;;13.20;99.90;;;;;;5003218;28;20228;-32
2023/08/31 05:26:01;;;;;;;3.27;2.33;;;13.20;99.90;;;;;;4977700;28;20183;-32
2023/08/31 05:28:27;;;;;;;4.60;2.20;;;13.30;99.90;;;;;;4985991;28;20183;-32
2023/08/31 05:30:55;;;;;;;6.20;2.63;;;13.30;99.90;;;;;;4992417;28;20186;-32
2023/08/31 05:33:27;;;;;;;3.73;2.53;;;13.40;99.90;;;;;;4989559;28;20203;-32
2023/08/31 05:35:53;;;;;;;2.93;2.50;;;13.50;99.90;;;;;;4997085;28;20186;-32
2023/08/31 05:38:19;;;;;;;2.87;2.57;;;13.50;99.90;;;;;;4987850;28;20221;-32
2023/08/31 05:40:47;;;;;;;3.27;2.53;;;13.60;99.90;;;;;;4986146;28;20214;-32
2023/08/31 05:43:13;;;;;;;4.73;2.37;;;13.60;99.90;;;;;;4986082;28;20210;-32
2023/08/31 05:45:39;;;;;;;3.30;2.23;;;13.70;99.90;;;;;;4986589;28;20214;-32
2023/08/31 05:48:05;;;;;;;4.27;2.60;;;13.80;99.90;;;;;;4994797;28;20218;-32
2023/08/31 05:50:31;;;;;;;4.80;2.40;;;13.90;99.90;;;;;;4997051;28;20181;-32
2023/08/31 05:52:57;;;;;;;4.50;2.90;;;13.90;99.90;;;;;;4998356;28;20207;-32
2023/08/31 05:55:23;;;;;;;4.43;2.37;;;13.90;99.90;;;;;;4987474;28;20182;-32
2023/08/31 05:57:49;;;;;;;2.53;2.27;;;13.90;99.90;;;;;;5000339;28;20190;-32
2023/08/31 06:00:16;;;;;;;4.50;2.57;;;13.90;99.90;;;;;;4993939;28;20206;-32
2023/08/31 06:02:44;;;;;;;3.97;2.57;;;13.90;99.90;;;;;;5013470;28;20289;-32
2023/08/31 06:05:12;;;;;;;6.53;2.63;;;13.90;99.90;;;;;;4997242;28;20232;-32
2023/08/31 06:07:38;;;;;;;4.97;2.70;;;13.90;99.90;;;;;;4985909;28;20179;-32
2023/08/31 06:10:05;;;;;;;4.93;3.03;;;13.90;99.90;;;;;;5008764;28;20202;-32
2023/08/31 06:12:31;;;;;;;5.60;2.73;;;14.00;99.90;;;;;;4997095;28;20258;-32
2023/08/31 06:14:57;;;;;;;3.40;2.53;;;14.00;99.90;;;;;;4989849;28;20210;-32
2023/08/31 06:17:23;;;;;;;4.90;2.53;;;14.00;99.90;;;;;;4993383;28;20179;-32
2023/08/31 06:19:49;;;;;;;5.03;2.97;;;14.10;99.90;;;;;;4995483;28;20192;-32
2023/08/31 06:22:15;;;;;;;4.63;2.63;;;14.10;99.90;;;;;;4993974;28;20216;-32
2023/08/31 06:24:42;;;;;;;4.63;2.67;;;14.10;99.90;;;;;;4993651;28;20175;-32
2023/08/31 06:27:08;;;;;;;3.37;2.80;;;14.20;99.90;;;;;;4998091;28;20179;-32
2023/08/31 06:29:33;;;;;;;3.07;2.53;;;14.20;99.90;;;;;;4996546;28;20718;-32
2023/08/31 06:31:59;;;;;;;4.63;2.70;;;14.20;99.90;;;;;;4996644;28;20267;-32
2023/08/31 06:34:25;;;;;;;4.87;2.77;;;14.20;99.90;;;;;;4988808;28;20187;-32
2023/08/31 06:36:51;;;;;;;3.93;2.43;;;14.30;99.90;;;;;;5004995;28;20273;-32
2023/08/31 06:39:17;;;;;;;3.73;2.93;;;14.30;99.90;;;;;;4997199;28;20196;-32
2023/08/31 06:41:43;;;;;;;4.20;2.67;;;14.40;99.90;;;;;;4996811;28;20214;-32
2023/08/31 06:44:09;;;;;;;4.60;2.30;;;14.50;99.90;;;;;;5005186;28;20178;-32
2023/08/31 06:46:37;;;;;;;4.83;2.70;;;14.50;99.90;;;;;;4996754;28;20190;-32
2023/08/31 06:49:06;;;;;;;3.50;2.07;;;14.50;99.90;;;;;;5000905;28;20183;-32
2023/08/31 06:51:33;;;;;;;4.03;2.37;;;14.60;99.90;;;;;;5009248;28;20262;-32
2023/08/31 06:54:05;;;;;;;5.13;2.50;;;14.70;99.90;;;;;;5009140;28;20179;-32
2023/08/31 06:56:33;;;;;;;3.97;2.50;;;14.70;99.90;;;;;;5016962;28;20178;-32
2023/08/31 06:58:59;;;;;;;3.83;2.10;;;14.80;99.90;;;;;;4994601;28;20191;-32
2023/08/31 07:01:25;;;;;;;5.67;2.80;;;14.90;99.90;;;;;;4988091;28;20211;-33
2023/08/31 07:03:51;;;;;;;4.93;2.40;;;15.00;99.90;;;;;;4988935;28;20182;-32
2023/08/31 07:06:17;;;;;;;6.10;2.50;;;15.00;99.90;;;;;;4997729;28;20180;-32
2023/08/31 07:08:45;;;;;;;2.77;2.07;;;15.10;99.90;;;;;;4997400;28;20204;-32
2023/08/31 07:11:11;;;;;;;4.33;2.20;;;15.20;99.90;;;;;;4988970;28;20188;-32
2023/08/31 07:13:37;;;;;;;4.40;2.13;;;15.30;99.90;;;;;;4996463;28;20215;-32
2023/08/31 07:16:03;;;;;;;3.70;2.03;;;15.30;99.90;;;;;;4997191;28;20214;-32
2023/08/31 07:18:29;;;;;;;5.53;2.70;;;15.30;99.90;;;;;;4996487;28;20186;-32
2023/08/31 07:20:54;;;;;;;4.03;2.00;;;15.40;99.90;;;;;;4990559;28;20202;-32
2023/08/31 07:23:20;;;;;;;5.00;1.90;;;15.50;99.90;;;;;;5000200;28;20864;-32
2023/08/31 07:25:46;;;;;;;3.63;1.97;;;15.50;99.90;;;;;;5008273;28;20182;-33
2023/08/31 07:28:12;;;;;;;4.43;2.30;;;15.60;99.90;;;;;;4996795;28;20183;-33
2023/08/31 07:30:38;;;;;;;4.23;2.20;;;15.50;99.90;;;;;;4999489;28;20175;-32
2023/08/31 07:33:05;;;;;;;4.13;2.00;;;15.40;99.90;;;;;;4999995;28;20306;-32
2023/08/31 07:35:31;;;;;;;3.30;2.17;;;15.50;99.90;;;;;;4998185;28;20174;-32
2023/08/31 07:37:57;;;;;;;4.70;2.50;;;15.50;99.90;;;;;;5007003;28;20281;-33
2023/08/31 07:40:23;;;;;;;4.07;2.07;;;15.60;99.90;;;;;;4988823;28;20214;-32
2023/08/31 07:42:49;;;;;;;3.00;2.10;;;15.80;99.90;;;;;;4995619;28;20234;-32
2023/08/31 07:45:15;;;;;;;4.40;2.07;;;15.90;99.90;;;;;;4996633;28;20217;-32
2023/08/31 07:47:41;;;;;;;4.07;2.03;;;16.10;99.90;;;;;;4980212;28;20206;-36
2023/08/31 07:50:07;;;;;;;2.83;1.97;;;16.20;99.90;;;;;;4995202;28;20186;-32
2023/08/31 07:52:34;;;;;;;2.73;1.83;;;16.20;99.90;;;;;;4995950;28;20210;-32
2023/08/31 07:55:00;;;;;;;5.57;2.25;;;16.30;99.90;;;;;;4985788;28;20183;-32
2023/08/31 07:57:26;;;;;;;3.25;2.00;;;16.30;99.90;;;;;;5007139;28;20179;-33
2023/08/31 07:59:52;;;;;;;4.50;2.23;;;16.40;99.90;;;;;;4994714;28;20270;-32
2023/08/31 08:02:18;;;;;;;2.90;2.03;;;16.50;99.90;;;;;;4987877;28;20286;-32
2023/08/31 08:04:46;;;;;;;5.50;2.00;;;16.60;99.90;;;;;;4991902;28;20182;-32
2023/08/31 08:07:11;;;;;;;4.18;2.20;;;16.60;99.90;;;;;;4995850;28;20179;-32
2023/08/31 08:09:37;;;;;;;3.10;1.83;;;16.70;99.90;;;;;;4996464;28;20198;-32
2023/08/31 08:12:03;;;;;;;3.97;1.90;;;16.80;99.90;;;;;;4979745;28;20199;-32
2023/08/31 08:14:29;;;;;;;5.20;1.88;;;16.70;99.90;;;;;;4997409;28;20183;-32
2023/08/31 08:16:55;;;;;;;3.42;1.85;;;16.80;99.90;;;;;;4998640;28;20175;-32
2023/08/31 08:19:24;;;;;;;4.32;1.73;;;17.00;99.90;;;;;;4982328;28;20183;-32
2023/08/31 08:21:51;;;;;;;3.85;2.15;;;17.00;99.90;;;;;;4988745;28;20214;-32
2023/08/31 08:24:17;;;;;;;2.88;1.85;;;17.20;99.90;;;;;;5000404;28;20415;-32
2023/08/31 08:26:43;;;;;;;4.97;1.83;;;17.20;99.90;;;;;;4995340;28;20179;-32
2023/08/31 08:29:08;;;;;;;6.15;1.90;;;17.10;99.90;;;;;;4991360;28;20181;-32
2023/08/31 08:31:34;;;;;;;5.93;1.85;;;17.10;99.90;;;;;;4989439;28;20195;-33
2023/08/31 08:34:01;;;;;;;3.08;1.95;;;17.20;99.90;;;;;;5001241;28;20202;-32
2023/08/31 08:36:27;;;;;;;3.20;1.80;;;17.30;99.90;;;;;;4988850;28;20273;-32
2023/08/31 08:38:52;;;;;;;3.42;1.77;;;17.40;99.90;;;;;;4990730;28;20269;-32
2023/08/31 08:41:23;;;;;;;6.57;2.05;;;17.50;99.90;;;;;;5006840;28;20673;-33
2023/08/31 08:43:51;;;;;;;3.97;1.95;;;17.60;99.90;;;;;;4992253;28;20186;-32
2023/08/31 08:46:17;;;;;;;7.05;1.80;;;17.70;99.90;;;;;;4990710;28;20244;-32
2023/08/31 08:48:45;;;;;;;3.33;2.00;;;17.80;99.90;;;;;;4998414;28;20178;-32
2023/08/31 08:51:11;;;;;;;4.30;2.08;;;17.80;99.90;;;;;;4995222;28;20207;-32
2023/08/31 08:53:40;;;;;;;3.42;1.70;;;17.80;99.90;;;;;;4998245;28;20277;-33
2023/08/31 08:56:06;;;;;;;3.88;1.80;;;17.90;99.90;;;;;;4990220;28;20186;-32
2023/08/31 08:58:32;;;;;;;5.53;2.53;;;17.90;99.90;;;;;;4996175;28;20183;-32
2023/08/31 09:00:58;;;;;;;2.78;1.80;;;17.90;99.90;;;;;;4987090;28;20207;-32
2023/08/31 09:03:24;;;;;;;2.35;1.83;;;17.90;99.90;;;;;;4987367;28;20313;-32
2023/08/31 09:05:51;;;;;;;4.78;2.05;;;18.00;99.90;;;;;;4995854;28;20175;-32
2023/08/31 09:08:24;;;;;;;3.13;1.80;;;17.70;99.90;;;;;;4983203;28;20278;-32
2023/08/31 09:10:50;;;;;;;4.53;1.83;;;17.70;99.90;;;;;;5001785;28;20190;-32
2023/08/31 09:13:17;;;;;;;3.13;1.63;;;17.80;99.90;;;;;;5010464;28;20274;-32
2023/08/31 09:15:48;;;;;;;4.70;1.88;;;17.90;99.90;;;;;;5014378;28;20183;-32
2023/08/31 09:18:23;;;;;;;5.82;2.00;;;18.10;99.90;;;;;;4997548;28;20188;-32
2023/08/31 09:20:49;;;;;;;4.65;2.00;;;18.00;99.90;;;;;;5010475;28;20205;-32
2023/08/31 09:23:16;;;;;;;4.65;1.95;;;18.00;99.90;;;;;;4990349;28;20207;-32
2023/08/31 09:25:55;;;;;;;4.22;1.85;;;18.20;99.90;;;;;;4981133;28;20202;-32
2023/08/31 09:28:27;;;;;;;4.57;1.88;;;18.30;99.90;;;;;;4997727;28;20179;-32
2023/08/31 09:31:03;;;;;;;3.65;1.60;;;18.20;99.90;;;;;;4982629;28;20194;-32
2023/08/31 09:33:30;;;;;;;3.50;1.60;;;18.20;99.90;;;;;;4988530;28;20203;-33
2023/08/31 09:35:59;;;;;;;3.85;1.85;;;18.10;99.90;;;;;;5007142;28;20178;-32
2023/08/31 09:38:25;;;;;;;2.72;1.80;;;18.20;99.90;;;;;;4997174;28;20193;-33
2023/08/31 09:40:51;;;;;;;6.18;1.77;;;18.20;99.90;;;;;;4997590;28;20209;-32
2023/08/31 09:43:22;;;;;;;4.47;2.05;;;18.30;99.90;;;;;;4997452;28;20202;-34
2023/08/31 09:45:49;;;;;;;4.25;2.10;;;18.10;99.90;;;;;;4989300;28;20179;-32
2023/08/31 09:48:16;;;;;;;6.93;1.98;;;18.20;99.90;;;;;;4998531;28;20229;-32
2023/08/31 09:50:45;;;;;;;3.58;1.90;;;18.00;99.90;;;;;;5002226;28;20195;-33
2023/08/31 09:53:12;;;;;;;3.75;1.98;;;18.00;99.90;;;;;;4977698;28;20203;-32
2023/08/31 09:55:40;;;;;;;4.38;1.95;;;18.10;99.90;;;;;;4995934;28;20191;-33
2023/08/31 09:58:07;;;;;;;4.85;1.60;;;18.20;99.90;;;;;;4983229;28;20187;-33
2023/08/31 10:00:35;;;;;;;2.53;1.60;;;18.20;99.90;;;;;;4985853;28;20205;-32
2023/08/31 10:03:04;;;;;;;3.95;1.75;;;18.10;99.90;;;;;;4988032;28;20191;-33
2023/08/31 10:05:31;;;;;;;3.53;1.90;;;18.30;99.90;;;;;;4978669;28;20210;-33
2023/08/31 10:08:00;;;;;;;4.25;1.90;;;18.60;99.90;;;;;;4996944;28;20203;-33
2023/08/31 10:10:29;;;;;;;4.40;2.00;;;18.80;99.90;;;;;;4996867;28;20229;-33
2023/08/31 10:12:56;;;;;;;2.20;1.75;;;18.90;99.90;;;;;;4984712;28;20207;-32
2023/08/31 10:15:22;;;;;;;4.60;2.20;;;19.00;99.90;;;;;;4989794;28;20217;-33
2023/08/31 10:17:49;;;;;;;4.30;1.95;;;18.90;99.90;;;;;;5001551;28;20258;-32
2023/08/31 10:20:17;;;;;;;3.72;2.10;;;18.90;99.90;;;;;;4977611;28;20234;-32
2023/08/31 10:22:43;;;;;;;4.93;1.90;;;19.00;99.90;;;;;;4980445;28;20218;-33
2023/08/31 10:25:11;;;;;;;4.97;1.98;;;18.80;99.90;;;;;;4998664;28;20694;-34
2023/08/31 10:27:45;;;;;;;3.95;1.65;;;18.70;99.90;;;;;;4977205;28;20214;-33
2023/08/31 10:30:24;;;;;;;4.22;2.20;;;18.70;99.90;;;;;;4983938;28;20182;-33
2023/08/31 10:33:08;;;;;;;4.38;2.13;;;18.90;99.90;;;;;;4989043;28;20225;-34
2023/08/31 10:35:56;;;;;;;5.28;2.25;;;19.10;99.90;;;;;;4995389;28;20183;-33
2023/08/31 10:38:30;;;;;;;4.93;2.63;;;19.10;99.90;;;;;;5001754;28;20187;-33
2023/08/31 10:41:24;;;;;;;3.10;2.20;;;19.10;99.90;;;;;;4989783;28;20210;-33
2023/08/31 10:43:57;;;;;;;4.40;2.22;;;18.90;99.90;;;;;;4986580;28;20187;-33
2023/08/31 10:46:38;;;;;;;3.83;2.10;;;18.90;99.90;;;;;;4996923;28;20271;-33
2023/08/31 10:49:10;;;;;;;4.40;2.80;;;19.10;99.90;;;;;;4977128;28;20186;-35
2023/08/31 10:51:38;;;;;;;5.45;4.65;;;19.10;99.90;;;;;;4994972;28;20231;-33
2023/08/31 10:54:19;;;;;;;8.80;5.43;;;19.00;99.90;;;;;;4996619;28;20186;-33
2023/08/31 10:56:57;;;;;;;4.35;2.20;;;19.00;99.90;;;;;;4993437;28;20187;-33
2023/08/31 10:59:25;;;;;;;3.17;2.05;;;18.90;99.90;;;;;;4985226;28;20190;-33
2023/08/31 11:02:02;;;;;;;3.55;1.80;;;18.90;99.90;;;;;;5001466;28;20221;-33
2023/08/31 11:04:29;;;;;;;5.22;2.28;;;18.90;99.90;;;;;;5009408;28;20179;-33
2023/08/31 11:07:15;;;;;;;7.05;2.28;;;19.00;99.90;;;;;;4989190;28;20225;-33
2023/08/31 11:09:41;;;;;;;3.50;2.20;;;19.10;99.90;;;;;;5004825;28;20206;-33
2023/08/31 11:12:08;;;;;;;6.03;2.17;;;19.50;99.90;;;;;;4996642;28;20209;-33
2023/08/31 11:14:34;;;;;;;3.53;1.85;;;19.90;99.90;;;;;;4980515;28;20188;-33
2023/08/31 11:17:01;;;;;;;4.50;2.00;;;20.10;99.90;;;;;;4996307;28;20201;-34
2023/08/31 11:19:28;;;;;;;2.33;1.50;;;19.90;99.90;;;;;;4987948;28;20178;-33
2023/08/31 11:21:57;;;;;;;2.67;1.67;;;19.70;99.90;;;;;;4995959;28;20214;-33
2023/08/31 11:24:23;;;;;;;3.53;2.05;;;19.50;99.90;;;;;;4988781;28;20249;-33
2023/08/31 11:26:54;;;;;;;3.08;2.10;;;19.40;99.90;;;;;;4992952;28;20175;-33
2023/08/31 11:29:20;;;;;;;3.47;1.95;;;19.40;99.90;;;;;;4992097;28;20186;-33
2023/08/31 11:31:46;;;;;;;4.40;2.00;;;19.60;99.90;;;;;;4993622;28;20300;-33
2023/08/31 11:34:17;;;;;;;4.13;1.85;;;19.60;99.90;;;;;;4990479;28;20176;-34
2023/08/31 11:36:43;;;;;;;4.15;1.83;;;19.50;99.90;;;;;;5012282;28;20213;-33
2023/08/31 11:39:10;;;;;;;2.92;1.77;;;19.40;99.90;;;;;;4979558;28;20187;-33
2023/08/31 11:41:41;;;;;;;3.35;1.95;;;19.40;99.90;;;;;;4979844;28;20223;-33
2023/08/31 11:44:16;;;;;;;2.53;1.67;;;19.30;99.90;;;;;;4980036;28;20195;-33
2023/08/31 11:46:44;;;;;;;2.95;1.90;;;19.40;99.90;;;;;;4996060;28;20178;-33
2023/08/31 11:49:10;;;;;;;4.38;1.80;;;19.70;99.90;;;;;;4979994;28;20179;-33
2023/08/31 11:51:37;;;;;;;2.80;1.98;;;19.70;99.90;;;;;;4989367;28;20210;-33
2023/08/31 11:54:04;;;;;;;4.03;1.70;;;19.80;99.90;;;;;;4999603;28;20234;-33
2023/08/31 11:56:44;;;;;;;6.30;2.22;;;19.80;99.90;;;;;;4990812;28;20313;-33
2023/08/31 11:59:13;;;;;;;5.00;1.98;;;19.80;99.90;;;;;;5001518;28;20232;-33
2023/08/31 12:01:40;;;;;;;3.58;2.08;;;19.90;99.90;;;;;;4997481;28;20218;-33
2023/08/31 12:04:22;;;;;;;2.85;1.77;;;20.10;99.90;;;;;;4989765;28;20186;-33
2023/08/31 12:06:51;;;;;;;4.38;2.22;;;20.50;99.90;;;;;;4995525;28;20215;-33
2023/08/31 12:09:17;;;;;;;4.50;2.08;;;20.80;99.90;;;;;;4979055;28;20175;-33
2023/08/31 12:11:50;;;;;;;4.07;2.05;;;21.00;99.90;;;;;;4985416;28;20215;-35
2023/08/31 12:14:24;;;;;;;2.70;1.85;;;20.80;99.90;;;;;;4990616;28;20266;-33
2023/08/31 12:16:51;;;;;;;3.25;2.05;;;20.50;99.90;;;;;;4990214;28;20183;-33
2023/08/31 12:19:17;;;;;;;4.10;2.30;;;20.50;99.90;;;;;;4998825;28;20269;-33
2023/08/31 12:21:45;;;;;;;2.42;1.60;;;20.40;99.90;;;;;;4990096;28;20313;-33
2023/08/31 12:24:11;;;;;;;4.13;1.90;;;20.40;99.90;;;;;;4990283;28;20186;-33
2023/08/31 12:26:37;;;;;;;3.13;1.95;;;20.30;99.90;;;;;;4998747;28;20183;-33
2023/08/31 12:29:06;;;;;;;4.28;2.05;;;20.20;99.90;;;;;;4994382;28;20175;-34
2023/08/31 12:31:33;;;;;;;3.83;2.00;;;20.00;99.90;;;;;;4998697;28;20265;-33
2023/08/31 12:34:00;;;;;;;4.38;2.10;;;20.00;99.90;;;;;;4979224;28;20274;-34
2023/08/31 12:36:26;;;;;;;2.90;2.13;;;20.00;99.90;;;;;;4980861;28;20191;-33
2023/08/31 12:38:52;;;;;;;2.78;1.70;;;20.30;99.90;;;;;;5006687;28;20182;-33
2023/08/31 12:41:20;;;;;;;3.55;2.05;;;20.50;99.90;;;;;;4998316;28;20217;-33
2023/08/31 12:43:46;;;;;;;4.70;1.77;;;20.70;99.90;;;;;;4981327;28;20217;-33
2023/08/31 12:46:13;;;;;;;3.92;1.98;;;20.80;99.90;;;;;;4989856;28;20191;-33
2023/08/31 12:48:39;;;;;;;5.18;2.17;;;21.00;99.90;;;;;;5013678;28;20190;-33
2023/08/31 12:51:05;;;;;;;3.25;1.98;;;21.30;99.90;;;;;;4991606;28;20217;-33